createdAt,value
2018-10-12T00:00:44.416Z,95.20
2018-10-12T00:03:14.540Z,94.90
2018-10-12T00:05:44.875Z,94.60
2018-10-12T00:08:14.589Z,94.40
2018-10-12T00:10:44.129Z,94.10
2018-10-12T00:13:13.679Z,93.80
2018-10-12T00:15:43.341Z,93.70
2018-10-12T00:18:12.872Z,93.90
2018-10-12T00:20:42.395Z,93.50
2018-10-12T00:23:11.984Z,93.30
2018-10-12T00:25:41.597Z,93.30
2018-10-12T00:28:11.169Z,93.20
2018-10-12T00:30:40.815Z,93.20
2018-10-12T00:33:10.396Z,93.30
2018-10-12T00:35:39.900Z,93.40
2018-10-12T00:38:09.536Z,93.40
2018-10-12T00:40:39.211Z,93.50
2018-10-12T00:43:08.904Z,93.70
2018-10-12T00:45:38.366Z,93.50
2018-10-12T00:48:08.299Z,93.60
2018-10-12T00:50:38.318Z,93.70
2018-10-12T00:53:08.388Z,93.70
2018-10-12T00:55:38.499Z,93.80
2018-10-12T00:58:08.689Z,93.90
2018-10-12T01:00:38.485Z,93.90
2018-10-12T01:03:08.657Z,93.90
2018-10-12T01:05:38.365Z,93.80
2018-10-12T01:08:09.015Z,93.80
2018-10-12T01:10:38.636Z,93.90
2018-10-12T01:13:08.628Z,93.80
2018-10-12T01:15:38.614Z,93.80
2018-10-12T01:18:08.757Z,93.80
2018-10-12T01:20:38.746Z,93.90
2018-10-12T01:23:08.684Z,93.80
2018-10-12T01:25:38.843Z,93.90
2018-10-12T01:28:08.836Z,93.80
2018-10-12T01:30:38.829Z,93.90
2018-10-12T01:33:09.044Z,93.80
2018-10-12T01:35:39.395Z,93.80
2018-10-12T01:38:08.942Z,93.90
2018-10-12T01:40:38.978Z,93.90
2018-10-12T01:43:08.984Z,94.00
2018-10-12T01:45:38.902Z,94.20
2018-10-12T01:48:08.955Z,94.20
2018-10-12T01:50:39.045Z,94.10
2018-10-12T01:53:09.052Z,94.20
2018-10-12T01:55:39.179Z,94.30
2018-10-12T01:58:09.111Z,94.40
2018-10-12T02:00:39.036Z,94.50
2018-10-12T02:03:09.030Z,94.50
2018-10-12T02:05:39.065Z,94.60
2018-10-12T02:08:09.283Z,94.50
2018-10-12T02:10:39.348Z,94.60
2018-10-12T02:13:09.185Z,94.70
2018-10-12T02:15:39.272Z,94.90
2018-10-12T02:18:09.699Z,95.00
2018-10-12T02:20:39.405Z,95.00
2018-10-12T02:23:09.251Z,94.90
2018-10-12T02:25:39.606Z,95.00
2018-10-12T02:28:09.425Z,95.00
2018-10-12T02:30:39.480Z,94.90
2018-10-12T02:33:09.302Z,95.10
2018-10-12T02:35:39.442Z,95.10
2018-10-12T02:38:09.438Z,95.00
2018-10-12T02:40:39.545Z,94.90
2018-10-12T02:43:09.592Z,94.80
2018-10-12T02:45:39.639Z,94.70
2018-10-12T02:48:09.726Z,94.60
2018-10-12T02:50:39.747Z,94.60
2018-10-12T02:53:09.742Z,94.70
2018-10-12T02:55:39.605Z,94.70
2018-10-12T02:58:09.516Z,94.90
2018-10-12T03:00:39.188Z,94.90
2018-10-12T03:03:08.723Z,95.00
2018-10-12T03:05:38.394Z,95.10
2018-10-12T03:08:07.940Z,95.10
2018-10-12T03:10:37.674Z,95.10
2018-10-12T03:13:07.620Z,95.20
2018-10-12T03:15:37.332Z,95.20
2018-10-12T03:18:07.221Z,95.00
2018-10-12T03:20:36.795Z,95.10
2018-10-12T03:23:06.460Z,95.10
2018-10-12T03:25:36.159Z,95.10
2018-10-12T03:28:24.002Z,95.00
2018-10-12T03:30:53.730Z,95.00
2018-10-12T03:33:23.340Z,95.00
2018-10-12T03:35:53.104Z,94.90
2018-10-12T03:38:22.697Z,95.00
2018-10-12T03:40:52.381Z,95.00
2018-10-12T03:43:21.976Z,95.10
2018-10-12T03:45:51.537Z,95.10
2018-10-12T03:48:21.127Z,95.10
2018-10-12T03:50:50.780Z,95.00
2018-10-12T03:53:20.376Z,95.10
2018-10-12T03:55:50.072Z,95.20
2018-10-12T03:58:19.636Z,95.10
2018-10-12T04:00:49.182Z,95.10
2018-10-12T04:03:18.735Z,95.20
2018-10-12T04:05:48.359Z,95.20
2018-10-12T04:08:17.989Z,95.10
2018-10-12T04:10:47.627Z,95.20
2018-10-12T04:13:17.260Z,95.30
2018-10-12T04:15:46.852Z,95.20
2018-10-12T04:18:16.564Z,95.20
2018-10-12T04:20:46.189Z,95.40
2018-10-12T04:23:15.867Z,95.40
2018-10-12T04:25:45.416Z,95.50
2018-10-12T04:28:15.216Z,95.60
2018-10-12T04:30:44.846Z,95.60
2018-10-12T04:33:14.371Z,95.80
2018-10-12T04:35:43.946Z,96.00
2018-10-12T04:38:13.681Z,96.10
2018-10-12T04:40:59.800Z,95.90
2018-10-12T04:43:29.594Z,95.90
2018-10-12T04:45:59.981Z,96.10
2018-10-12T04:48:30.364Z,96.10
2018-10-12T04:51:01.090Z,96.20
2018-10-12T04:53:30.973Z,96.40
2018-10-12T04:56:00.758Z,96.60
2018-10-12T04:58:30.372Z,96.70
2018-10-12T05:01:00.135Z,96.70
2018-10-12T05:03:29.680Z,96.80
2018-10-12T05:05:59.476Z,96.80
2018-10-12T05:08:29.702Z,97.00
2018-10-12T05:10:59.245Z,96.70
2018-10-12T05:13:28.962Z,96.60
2018-10-12T05:15:58.560Z,96.60
2018-10-12T05:18:28.257Z,96.60
2018-10-12T05:20:58.360Z,96.80
2018-10-12T05:23:27.996Z,96.80
2018-10-12T05:25:57.822Z,96.80
2018-10-12T05:28:28.377Z,96.80
2018-10-12T05:30:57.867Z,96.90
2018-10-12T05:33:27.520Z,97.10
2018-10-12T05:35:57.274Z,97.10
2018-10-12T05:38:28.507Z,97.20
2018-10-12T05:40:58.357Z,97.20
2018-10-12T05:43:29.305Z,97.30
2018-10-12T05:45:59.056Z,97.30
2018-10-12T05:48:45.625Z,97.40
2018-10-12T05:51:17.073Z,97.60
2018-10-12T05:53:47.485Z,97.60
2018-10-12T05:56:22.352Z,97.60
2018-10-12T05:58:52.413Z,97.60
2018-10-12T06:01:22.044Z,97.90
2018-10-12T06:03:51.764Z,97.70
2018-10-12T06:06:21.808Z,97.70
2018-10-12T06:08:51.416Z,97.70
2018-10-12T06:11:21.126Z,97.70
2018-10-12T06:13:50.795Z,97.80
2018-10-12T06:16:20.530Z,97.90
2018-10-12T06:18:50.510Z,97.90
2018-10-12T06:21:20.253Z,98.00
2018-10-12T06:23:50.016Z,97.80
2018-10-12T06:26:19.641Z,97.80
2018-10-12T06:28:49.350Z,97.80
2018-10-12T06:31:18.998Z,98.00
2018-10-12T06:33:48.682Z,97.90
2018-10-12T06:36:18.282Z,97.80
2018-10-12T06:38:47.979Z,97.90
2018-10-12T06:41:17.569Z,97.80
2018-10-12T06:43:47.122Z,97.80
2018-10-12T06:46:17.065Z,97.60
2018-10-12T06:48:46.621Z,97.70
2018-10-12T06:51:16.206Z,97.60
2018-10-12T06:53:45.983Z,97.50
2018-10-12T06:56:15.529Z,97.30
2018-10-12T06:58:45.196Z,97.30
2018-10-12T07:06:13.755Z,97.30
2018-10-12T07:08:43.330Z,97.10
2018-10-12T07:11:12.900Z,97.10
2018-10-12T07:13:42.571Z,96.90
2018-10-12T07:16:12.112Z,96.80
2018-10-12T07:18:41.826Z,96.90
2018-10-12T07:21:11.423Z,96.70
2018-10-12T07:23:40.987Z,96.90
2018-10-12T07:26:10.497Z,96.80
2018-10-12T07:28:40.116Z,96.50
2018-10-12T07:31:09.771Z,96.60
2018-10-12T07:33:39.321Z,96.60
2018-10-12T07:36:08.991Z,96.50
2018-10-12T07:38:38.711Z,96.30
2018-10-12T07:41:08.301Z,96.00
2018-10-12T07:43:38.152Z,95.90
2018-10-12T07:46:08.088Z,95.70
2018-10-12T07:48:37.765Z,95.70
2018-10-12T07:51:07.561Z,95.60
2018-10-12T07:53:37.098Z,95.40
2018-10-12T07:56:07.543Z,95.50
2018-10-12T07:58:37.159Z,95.40
2018-10-12T08:01:06.927Z,95.30
2018-10-12T08:03:36.764Z,94.90
2018-10-12T08:06:06.599Z,94.90
2018-10-12T08:08:36.263Z,94.70
2018-10-12T08:11:05.826Z,94.90
2018-10-12T08:13:35.436Z,94.80
2018-10-12T08:16:05.073Z,94.60
2018-10-12T08:18:34.986Z,94.60
2018-10-12T08:21:04.550Z,94.60
2018-10-12T08:23:34.295Z,94.80
2018-10-12T08:26:03.972Z,94.70
2018-10-12T08:28:33.482Z,94.70
2018-10-12T08:31:02.918Z,94.60
2018-10-12T08:33:32.607Z,94.60
2018-10-12T08:36:02.426Z,94.60
2018-10-12T08:38:32.086Z,94.60
2018-10-12T08:41:01.703Z,94.50
2018-10-12T08:43:31.662Z,94.50
2018-10-12T08:46:01.238Z,94.50
2018-10-12T08:48:31.336Z,93.90
2018-10-12T08:51:01.181Z,94.00
2018-10-12T08:53:31.164Z,93.80
2018-10-12T08:56:01.226Z,94.10
2018-10-12T08:58:31.357Z,93.90
2018-10-12T09:01:01.464Z,93.90
2018-10-12T09:03:31.434Z,93.70
2018-10-12T09:06:01.685Z,93.50
2018-10-12T09:08:31.515Z,93.50
2018-10-12T09:11:01.534Z,93.20
2018-10-12T09:13:31.680Z,93.10
2018-10-12T09:16:01.363Z,93.20
2018-10-12T09:18:30.971Z,93.30
2018-10-12T09:21:00.973Z,92.90
2018-10-12T09:23:30.588Z,92.90
2018-10-12T09:26:00.282Z,93.10
2018-10-12T09:28:29.807Z,93.10
2018-10-12T09:30:59.436Z,93.20
2018-10-12T09:33:28.988Z,93.30
2018-10-12T09:35:58.496Z,93.30
2018-10-12T09:38:28.012Z,93.10
2018-10-12T09:40:57.573Z,93.20
2018-10-12T09:43:27.129Z,93.20
2018-10-12T09:45:56.807Z,92.90
2018-10-12T09:48:26.433Z,92.90
2018-10-12T09:50:56.357Z,93.00
2018-10-12T09:53:25.852Z,92.70
2018-10-12T09:55:56.154Z,92.00
2018-10-12T09:58:26.012Z,91.70
2018-10-12T10:01:01.027Z,91.50
2018-10-12T10:03:35.819Z,91.60
2018-10-12T10:06:05.412Z,91.60
2018-10-12T10:08:35.625Z,91.30
2018-10-12T10:11:04.869Z,91.30
2018-10-12T10:13:34.613Z,91.50
2018-10-12T10:16:04.481Z,91.50
2018-10-12T10:18:34.068Z,91.90
2018-10-12T10:21:03.734Z,91.60
2018-10-12T10:23:33.342Z,91.90
2018-10-12T10:26:02.868Z,92.00
2018-10-12T10:28:32.392Z,91.70
2018-10-12T10:31:01.948Z,91.40
2018-10-12T10:33:31.546Z,91.60
2018-10-12T10:36:01.640Z,91.30
2018-10-12T10:38:30.858Z,90.90
2018-10-12T10:41:00.572Z,90.80
2018-10-12T10:43:30.245Z,90.40
2018-10-12T10:45:59.936Z,90.50
2018-10-12T10:48:29.497Z,90.20
2018-10-12T10:50:59.083Z,90.80
2018-10-12T10:53:28.635Z,90.50
2018-10-12T10:55:58.275Z,90.10
2018-10-12T10:58:27.952Z,90.00
2018-10-12T11:00:57.898Z,90.20
2018-10-12T11:03:27.718Z,89.80
2018-10-12T11:05:57.344Z,89.60
2018-10-12T11:08:27.139Z,89.30
2018-10-12T11:10:56.745Z,89.70
2018-10-12T11:13:26.429Z,89.30
2018-10-12T11:15:56.095Z,89.20
2018-10-12T11:18:25.845Z,88.80
2018-10-12T11:20:55.517Z,88.00
2018-10-12T11:23:25.272Z,87.80
2018-10-12T11:25:54.741Z,87.30
2018-10-12T11:28:24.595Z,86.90
2018-10-12T11:30:54.278Z,86.40
2018-10-12T11:33:23.818Z,86.30
2018-10-12T11:35:53.732Z,86.10
2018-10-12T11:38:23.512Z,86.30
2018-10-12T11:40:53.103Z,85.50
2018-10-12T11:43:32.644Z,85.90
2018-10-12T11:46:03.014Z,85.00
2018-10-12T11:48:32.544Z,83.90
2018-10-12T11:51:02.406Z,83.20
2018-10-12T11:53:32.172Z,84.10
2018-10-12T11:56:01.793Z,82.40
2018-10-12T11:58:31.633Z,81.90
2018-10-12T12:01:01.406Z,81.20
2018-10-12T12:03:31.042Z,81.50
2018-10-12T12:06:00.752Z,81.90
2018-10-12T12:08:30.510Z,80.70
2018-10-12T12:11:00.132Z,80.00
2018-10-12T12:13:29.791Z,79.30
2018-10-12T12:15:59.489Z,79.20
2018-10-12T12:18:29.244Z,78.20
2018-10-12T12:20:58.775Z,78.00
2018-10-12T12:23:28.402Z,78.10
2018-10-12T12:25:58.130Z,78.10
2018-10-12T12:28:27.696Z,78.00
2018-10-12T12:30:57.265Z,77.40
2018-10-12T12:33:26.908Z,77.20
2018-10-12T12:35:57.187Z,77.30
2018-10-12T12:38:26.465Z,77.30
2018-10-12T12:40:56.050Z,77.40
2018-10-12T12:43:25.685Z,77.50
2018-10-12T12:45:55.385Z,77.40
2018-10-12T12:48:25.425Z,77.50
2018-10-12T12:50:54.681Z,77.20
2018-10-12T12:53:24.717Z,76.60
2018-10-12T12:55:54.375Z,77.70
2018-10-12T12:58:24.048Z,75.70
2018-10-12T13:00:53.992Z,75.30
2018-10-12T13:03:23.873Z,74.20
2018-10-12T13:05:53.483Z,73.20
2018-10-12T13:08:23.123Z,72.20
2018-10-12T13:10:52.802Z,71.80
2018-10-12T13:13:22.582Z,72.10
2018-10-12T13:15:52.248Z,72.40
2018-10-12T13:18:22.032Z,71.20
2018-10-12T13:20:51.720Z,71.00
2018-10-12T13:23:21.567Z,70.60
2018-10-12T13:25:51.276Z,70.50
2018-10-12T13:28:20.995Z,69.40
2018-10-12T13:30:51.817Z,68.40
2018-10-12T13:33:22.545Z,68.40
2018-10-12T13:35:52.369Z,68.70
2018-10-12T13:38:22.042Z,69.50
2018-10-12T13:40:51.591Z,69.60
2018-10-12T13:43:21.487Z,70.20
2018-10-12T13:45:51.324Z,69.60
2018-10-12T13:48:20.960Z,68.20
2018-10-12T13:50:50.719Z,67.80
2018-10-12T13:53:20.535Z,67.30
2018-10-12T13:55:50.248Z,67.40
2018-10-12T13:58:19.937Z,67.50
2018-10-12T14:00:49.967Z,65.80
2018-10-12T14:03:19.834Z,65.00
2018-10-12T14:05:49.503Z,64.60
2018-10-12T14:08:19.335Z,64.30
2018-10-12T14:10:49.118Z,63.80
2018-10-12T14:13:18.948Z,63.80
2018-10-12T14:15:48.778Z,63.70
2018-10-12T14:18:18.508Z,64.20
2018-10-12T14:20:48.247Z,64.20
2018-10-12T14:23:18.343Z,64.80
2018-10-12T14:25:48.107Z,64.80
2018-10-12T14:28:17.808Z,65.20
2018-10-12T14:30:47.874Z,65.20
2018-10-12T14:33:17.610Z,64.70
2018-10-12T14:35:47.444Z,64.80
2018-10-12T14:38:17.068Z,65.20
2018-10-12T14:40:46.800Z,65.60
2018-10-12T14:43:16.573Z,65.60
2018-10-12T14:45:46.283Z,65.80
2018-10-12T14:48:16.149Z,66.70
2018-10-12T14:50:46.091Z,66.90
2018-10-12T14:53:16.048Z,67.80
2018-10-12T14:55:45.749Z,68.40
2018-10-12T14:58:15.594Z,69.20
2018-10-12T15:00:45.489Z,69.40
2018-10-12T15:03:15.248Z,70.40
2018-10-12T15:05:45.106Z,69.90
2018-10-12T15:08:15.124Z,69.60
2018-10-12T15:10:45.413Z,70.10
2018-10-12T15:13:15.304Z,70.40
2018-10-12T15:15:45.133Z,70.60
2018-10-12T15:18:14.901Z,71.20
2018-10-12T15:20:45.106Z,71.50
2018-10-12T15:23:14.993Z,72.80
2018-10-12T15:25:45.590Z,72.80
2018-10-12T15:28:15.243Z,73.80
2018-10-12T15:30:45.019Z,74.80
2018-10-12T15:33:14.691Z,74.90
2018-10-12T15:35:44.499Z,75.50
2018-10-12T15:38:14.269Z,75.60
2018-10-12T15:40:44.192Z,76.00
2018-10-12T15:43:14.127Z,76.60
2018-10-12T15:45:43.864Z,77.20
2018-10-12T15:48:13.538Z,77.70
2018-10-12T15:50:43.308Z,78.20
2018-10-12T15:53:12.906Z,78.40
2018-10-12T15:55:42.969Z,78.50
2018-10-12T15:58:12.638Z,78.60
2018-10-12T16:00:42.323Z,79.30
2018-10-12T16:03:12.092Z,79.40
2018-10-12T16:05:41.793Z,80.30
2018-10-12T16:08:11.438Z,80.60
2018-10-12T16:10:41.099Z,80.30
2018-10-12T16:13:11.343Z,81.00
2018-10-12T16:15:41.160Z,81.00
2018-10-12T16:18:11.351Z,81.50
2018-10-12T16:20:41.419Z,81.70
2018-10-12T16:23:11.594Z,81.50
2018-10-12T16:26:44.653Z,81.70
2018-10-12T16:29:14.460Z,82.00
2018-10-12T16:31:44.013Z,82.30
2018-10-12T16:34:13.698Z,82.90
2018-10-12T16:36:43.643Z,82.60
2018-10-12T16:39:13.345Z,83.20
2018-10-12T16:41:43.028Z,83.20
2018-10-12T16:44:12.976Z,83.40
2018-10-12T16:46:42.738Z,83.60
2018-10-12T16:49:12.704Z,83.80
2018-10-12T16:51:42.324Z,83.90
2018-10-12T16:54:12.293Z,83.80
2018-10-12T16:56:42.150Z,84.30
2018-10-12T16:59:12.290Z,84.10
2018-10-12T17:01:42.268Z,84.50
2018-10-12T17:04:12.361Z,84.30
2018-10-12T17:06:42.613Z,84.60
2018-10-12T17:09:13.256Z,84.50
2018-10-12T17:11:43.111Z,84.90
2018-10-12T17:14:12.879Z,84.90
2018-10-12T17:16:43.025Z,85.30
2018-10-12T17:19:13.132Z,85.30
2018-10-12T17:21:42.954Z,85.60
2018-10-12T17:24:13.186Z,85.70
2018-10-12T17:26:43.191Z,85.80
2018-10-12T17:29:13.087Z,86.00
2018-10-12T17:31:43.122Z,86.10
2018-10-12T17:34:13.213Z,86.40
2018-10-12T17:36:43.264Z,86.50
2018-10-12T17:39:14.078Z,86.90
2018-10-12T17:41:44.558Z,87.00
2018-10-12T17:44:14.436Z,87.20
2018-10-12T17:46:44.488Z,87.50
2018-10-12T17:49:14.462Z,87.80
2018-10-12T17:51:44.192Z,88.00
2018-10-12T17:54:14.001Z,88.20
2018-10-12T17:56:43.910Z,88.50
2018-10-12T17:59:13.837Z,88.70
2018-10-12T18:01:44.675Z,88.80
2018-10-12T18:04:15.104Z,89.20
2018-10-12T18:06:46.200Z,89.50
2018-10-12T18:09:16.647Z,89.80
2018-10-12T18:11:47.436Z,90.00
2018-10-12T18:17:23.102Z,90.30
2018-10-12T18:19:54.091Z,90.50
2018-10-12T18:22:23.966Z,90.60
2018-10-12T18:24:54.002Z,90.70
2018-10-12T18:27:23.845Z,90.80
2018-10-12T18:29:53.525Z,91.00
2018-10-12T18:32:23.410Z,91.10
2018-10-12T18:34:53.630Z,91.20
2018-10-12T18:37:23.474Z,91.40
2018-10-12T18:39:53.588Z,91.40
2018-10-12T18:42:24.010Z,91.50
2018-10-12T18:44:53.966Z,91.60
2018-10-12T18:47:24.070Z,91.70
2018-10-12T18:49:54.049Z,91.80
2018-10-12T18:52:23.897Z,91.90
2018-10-12T18:54:53.811Z,92.00
2018-10-12T18:57:23.684Z,92.00
2018-10-12T18:59:53.729Z,91.90
2018-10-12T19:02:23.824Z,92.00
2018-10-12T19:04:53.925Z,92.20
2018-10-12T19:07:23.893Z,92.10
2018-10-12T19:09:54.053Z,92.10
2018-10-12T19:12:24.090Z,92.20
2018-10-12T19:14:53.875Z,92.20
2018-10-12T19:17:23.693Z,92.30
2018-10-12T19:19:53.573Z,92.20
2018-10-12T19:22:23.614Z,92.20
2018-10-12T19:24:53.568Z,92.50
2018-10-12T19:27:23.614Z,92.30
2018-10-12T19:29:53.506Z,92.30
2018-10-12T19:32:23.521Z,92.50
2018-10-12T19:34:53.375Z,92.30
2018-10-12T19:37:23.311Z,92.30
2018-10-12T19:39:53.544Z,92.40
2018-10-12T19:42:23.760Z,92.40
2018-10-12T19:44:54.230Z,92.40
2018-10-12T19:47:24.357Z,92.40
2018-10-12T19:49:54.304Z,92.40
2018-10-12T19:52:24.416Z,92.50
2018-10-12T19:54:54.490Z,92.40
2018-10-12T19:57:24.240Z,92.40
2018-10-12T19:59:54.315Z,92.50
2018-10-12T20:02:24.298Z,92.50
2018-10-12T20:04:54.457Z,92.60
2018-10-12T20:07:24.791Z,92.70
2018-10-12T20:09:54.838Z,92.70
2018-10-12T20:12:25.248Z,92.70
2018-10-12T20:14:55.214Z,92.80
2018-10-12T20:17:25.177Z,92.90
2018-10-12T20:19:55.340Z,92.90
2018-10-12T20:22:25.115Z,93.00
2018-10-12T20:24:55.206Z,93.00
2018-10-12T20:27:25.145Z,93.10
2018-10-12T20:29:55.076Z,93.00
2018-10-12T20:32:25.104Z,93.00
2018-10-12T20:34:55.180Z,93.00
2018-10-12T20:37:25.076Z,93.00
2018-10-12T20:39:54.860Z,93.00
2018-10-12T20:42:24.665Z,92.90
2018-10-12T20:44:55.065Z,92.90
2018-10-12T20:47:25.730Z,92.90
2018-10-12T20:49:56.120Z,93.00
2018-10-12T20:52:26.899Z,92.80
2018-10-12T20:55:01.579Z,92.70
2018-10-12T20:57:33.700Z,92.70
2018-10-12T21:00:03.625Z,92.70
2018-10-12T21:02:33.611Z,92.70
2018-10-12T21:05:03.385Z,92.60
2018-10-12T21:07:33.212Z,92.60
2018-10-12T21:10:03.189Z,92.60
2018-10-12T21:12:33.294Z,92.50
2018-10-12T21:15:03.267Z,92.50
2018-10-12T21:17:32.933Z,92.40
2018-10-12T21:20:02.772Z,92.50
2018-10-12T21:22:32.432Z,92.50
2018-10-12T21:25:02.378Z,92.60
2018-10-12T21:27:32.160Z,92.50
2018-10-12T21:30:01.832Z,92.50
2018-10-12T21:32:31.709Z,92.40
2018-10-12T21:35:01.775Z,92.40
2018-10-12T21:37:31.523Z,92.30
2018-10-12T21:40:01.388Z,92.30
2018-10-12T21:42:31.161Z,92.30
2018-10-12T21:45:01.049Z,92.30
2018-10-12T21:47:30.755Z,92.20
2018-10-12T21:50:00.506Z,92.50
2018-10-12T21:52:30.180Z,92.10
2018-10-12T21:55:00.091Z,92.20
2018-10-12T21:57:29.881Z,92.20
2018-10-12T22:00:00.388Z,92.20
2018-10-12T22:02:30.123Z,92.30
2018-10-12T22:05:00.001Z,92.50
2018-10-12T22:07:30.174Z,92.20
2018-10-12T22:10:00.237Z,92.10
2018-10-12T22:12:30.168Z,92.10
2018-10-12T22:15:00.278Z,92.10
2018-10-12T22:17:30.271Z,92.10
2018-10-12T22:20:00.570Z,92.10
2018-10-12T22:22:30.531Z,92.00
2018-10-12T22:25:01.112Z,92.10
2018-10-12T22:27:30.885Z,92.00
2018-10-12T22:30:00.594Z,92.20
2018-10-12T22:32:30.685Z,91.90
2018-10-12T22:35:00.947Z,92.10
2018-10-12T22:37:30.622Z,92.10
2018-10-12T22:40:00.926Z,92.20
2018-10-12T22:42:30.956Z,92.10
2018-10-12T22:45:01.431Z,92.20
2018-10-12T22:47:31.349Z,92.50
2018-10-12T22:50:01.172Z,92.30
2018-10-12T22:52:30.930Z,92.30
2018-10-12T22:55:01.160Z,92.30
2018-10-12T22:57:31.129Z,92.20
2018-10-12T23:00:01.165Z,92.10
2018-10-12T23:02:31.226Z,92.20
2018-10-12T23:05:01.371Z,92.20
2018-10-12T23:07:31.348Z,92.30
2018-10-12T23:10:01.505Z,92.30
2018-10-12T23:12:31.593Z,92.30
2018-10-12T23:15:01.620Z,92.20
2018-10-12T23:17:31.756Z,92.10
2018-10-12T23:20:01.871Z,92.20
2018-10-12T23:22:31.744Z,92.20
2018-10-12T23:25:01.820Z,92.30
2018-10-12T23:27:32.159Z,92.30
2018-10-12T23:30:02.080Z,92.30
2018-10-12T23:32:32.044Z,92.30
2018-10-12T23:35:01.816Z,92.40
2018-10-12T23:37:31.447Z,92.40
2018-10-12T23:40:01.010Z,92.40
2018-10-12T23:42:30.810Z,92.60
2018-10-12T23:45:00.541Z,92.50
2018-10-12T23:47:30.229Z,92.60
2018-10-12T23:49:59.930Z,92.60
2018-10-12T23:52:29.938Z,92.80
2018-10-12T23:54:59.544Z,92.80
2018-10-12T23:57:29.134Z,92.90
2018-10-12T23:59:58.864Z,92.80
